Flight Track Log - Related Links

Times and Time Zones

All times are in EDT time to prevent confusion due to time zone crossing. See the ASQ4976 flight status page for this flight to view local times or setup timezone preferences in your user account.

Time Position Orientation Groundspeed Altitude Reporting Facility
EDT Latitude Longitude Course Direction KTS MPH feet Rate Location/Type
Wed 12:45:23 PM 42.6958 -73.8553 231° Southwest 214 246 3,100  Level Boston Center
Wed 12:45:50 PM 42.6953 -73.9061 269° West 242 278 3,800 2,000 Climbing Boston Center
Wed 12:46:50 PM 42.7381 -73.9836 307° West 291 335 6,000 2,773 Climbing Boston Center
Wed 12:48:02 PM 42.7761 -74.0947 295° West 286 329 9,900 2,909 Climbing Boston Center
Wed 12:49:02 PM 42.7869 -74.2025 278° West 280 322 12,400 2,500 Climbing Boston Center
Wed 12:50:02 PM 42.7747 -74.3097 261° West 289 333 14,900 2,200 Climbing Boston Center
Wed 12:51:02 PM 42.6975 -74.3244 188° South 263 303 16,800 1,500 Climbing Boston Center
Wed 12:52:02 PM 42.6086 -74.2653 154° Southeast 265 305 17,900 1,100 Climbing Boston Center
Wed 12:53:02 PM 42.5139 -74.2061 155° Southeast 328 377 19,000 1,100 Climbing Boston Center
Wed 12:54:02 PM 42.4208 -74.1528 157° South 381 438 20,100 1,150 Climbing Boston Center
Wed 12:55:02 PM 42.3133 -74.0853 155° Southeast 408 470 21,300 1,200 Climbing Boston Center
Wed 12:56:02 PM 42.1975 -74.0403 164° South 427 491 22,500 1,200 Climbing Boston Center
Wed 12:57:02 PM 42.0703 -74.0456 182° South 442 509 23,700 1,200 Climbing Boston Center
Wed 12:58:02 PM 41.9386 -74.0589 184° South 458 527 24,900 1,187 Climbing Boston Center
Wed 01:00:04 PM 41.7006 -74.2161 206° Southwest 475 547 27,300 1,180 Climbing New York Center
Wed 01:01:05 PM 41.5836 -74.3017 209° Southwest 482 555 28,500 1,190 Climbing New York Center
Wed 01:02:05 PM 41.4728 -74.3869 210° Southwest 477 549 29,700 1,190 Climbing New York Center
Wed 01:03:06 PM 41.3536 -74.4717 208° Southwest 483 556 30,900 1,311 Climbing New York Center
Wed 01:04:04 PM 41.2294 -74.5753 212° Southwest 488 562 32,300 1,311 Climbing New York Center
Wed 01:05:05 PM 41.1242 -74.6767 216° Southwest 482 555 33,500 942 Climbing New York Center
Wed 01:06:05 PM 41.0183 -74.7833 217° Southwest 482 555 34,200 706 Climbing New York Center
Wed 01:07:04 PM 40.9147 -74.8872 217° Southwest 482 555 34,900 706 Climbing New York Center
Wed 01:08:04 PM 40.8050 -74.9928 216° Southwest 482 555 35,600 550 Climbing New York Center
Wed 01:09:04 PM 40.6989 -75.0986 217° Southwest 482 555 36,000 198 Climbing New York Center
Wed 01:10:05 PM 40.5886 -75.2092 217° Southwest 494 568 36,000  Level New York Center
Wed 01:11:04 PM 40.4761 -75.3192 217° Southwest 499 574 36,000  Level New York Center
Wed 01:12:05 PM 40.3614 -75.4289 216° Southwest 509 586 36,000  Level New York Center
Wed 01:13:05 PM 40.2483 -75.5408 217° Southwest 509 586 36,000  Level New York Center
Wed 01:14:04 PM 40.1553 -75.6756 228° Southwest 509 586 36,000  Level New York Center
Wed 01:16:04 PM 39.9714 -75.9433 228° Southwest 527 606 36,000  Level Washington Center
Wed 01:17:02 PM 39.8833 -76.0808 230° Southwest 522 601 36,000  Level Washington Center
Wed 01:18:03 PM 39.7933 -76.2153 229° Southwest 511 588 36,000  Level Washington Center
Wed 01:19:04 PM 39.6986 -76.3519 228° Southwest 511 588 36,000  Level Washington Center
Wed 01:20:04 PM 39.6103 -76.4858 229° Southwest 506 582 36,000  Level Washington Center
Wed 01:21:02 PM 39.5114 -76.6192 226° Southwest 506 582 36,000  Level Washington Center
Wed 01:22:03 PM 39.4183 -76.7547 228° Southwest 506 582 36,000  Level Washington Center
Wed 01:23:04 PM 39.3275 -76.8875 229° Southwest 506 582 36,000  Level Washington Center
Wed 01:24:02 PM 39.2342 -77.0225 228° Southwest 506 582 36,000  Level Washington Center
Wed 01:25:03 PM 39.1431 -77.1544 228° Southwest 506 582 36,000  Level Washington Center
Wed 01:26:04 PM 39.0494 -77.2861 228° Southwest 506 582 36,000  Level Washington Center
Wed 01:27:04 PM 38.9558 -77.4203 228° Southwest 506 582 36,000  Level Washington Center
Wed 01:28:02 PM 38.8747 -77.5356 228° Southwest 506 582 36,000  Level Washington Center
Wed 01:29:03 PM 38.7808 -77.6661 227° Southwest 506 582 36,000  Level Washington Center
Wed 01:30:04 PM 38.6889 -77.7967 228° Southwest 506 582 36,000  Level Washington Center
Wed 01:31:04 PM 38.6053 -77.9242 230° Southwest 493 567 36,000  Level Washington Center
Wed 01:32:02 PM 38.5294 -78.0600 235° Southwest 487 560 36,000  Level Washington Center
Wed 01:33:02 PM 38.4494 -78.1925 232° Southwest 481 554 36,000  Level Washington Center
Wed 01:34:03 PM 38.3717 -78.3247 233° Southwest 476 548 36,000  Level Washington Center
Wed 01:35:04 PM 38.2933 -78.4594 233° Southwest 476 548 36,000  Level Washington Center
Wed 01:36:04 PM 38.2106 -78.6042 234° Southwest 471 542 36,000  Level Washington Center
Wed 01:37:02 PM 38.1322 -78.7331 232° Southwest 471 542 36,000  Level Washington Center
Wed 01:38:02 PM 38.0514 -78.8669 233° Southwest 471 542 36,000  Level Washington Center
Wed 01:39:03 PM 37.9728 -78.9978 233° Southwest 471 542 36,000  Level Washington Center
Wed 01:40:03 PM 37.8983 -79.1156 231° Southwest 471 542 36,000  Level Washington Center
Wed 01:41:04 PM 37.8114 -79.2375 228° Southwest 471 542 36,000  Level Washington Center
Wed 01:42:04 PM 37.7133 -79.3694 227° Southwest 471 542 36,000  Level Washington Center
Wed 01:43:02 PM 37.6261 -79.4908 228° Southwest 476 548 36,000  Level Washington Center
Wed 01:44:02 PM 37.5386 -79.6122 228° Southwest 476 548 36,000  Level Washington Center
Wed 01:45:03 PM 37.4533 -79.7281 227° Southwest 476 548 36,000  Level Washington Center
Wed 01:46:04 PM 37.3722 -79.8386 227° Southwest 476 548 36,000  Level Washington Center
Wed 01:47:04 PM 37.2889 -79.9514 227° Southwest 476 548 36,000  Level Washington Center
Wed 01:49:04 PM 37.1114 -80.1894 227° Southwest 445 512 36,000  Level Atlanta Center
Wed 01:50:04 PM 37.0353 -80.2894 226° Southwest 436 502 36,000  Level Atlanta Center
Wed 01:51:04 PM 36.9553 -80.3997 228° Southwest 436 502 36,000  Level Atlanta Center
Wed 01:52:04 PM 36.8708 -80.5100 226° Southwest 436 502 36,000  Level Atlanta Center
Wed 01:53:04 PM 36.7906 -80.6172 227° Southwest 436 502 36,000  Level Atlanta Center
Wed 01:54:04 PM 36.7103 -80.7269 228° Southwest 430 495 36,000  Level Atlanta Center
Wed 01:55:04 PM 36.6294 -80.8336 227° Southwest 430 495 36,000  Level Atlanta Center
Wed 01:56:04 PM 36.5489 -80.9378 226° Southwest 435 501 36,000  Level Atlanta Center
Wed 01:57:04 PM 36.4639 -81.0494 227° Southwest 435 501 36,000  Level Atlanta Center
Wed 01:58:04 PM 36.3833 -81.1581 227° Southwest 430 495 36,000  Level Atlanta Center
Wed 01:59:04 PM 36.3022 -81.2667 227° Southwest 430 495 36,000  Level Atlanta Center
Wed 02:00:04 PM 36.2211 -81.3725 226° Southwest 428 493 36,000  Level Atlanta Center
Wed 02:01:04 PM 36.1358 -81.4833 226° Southwest 435 501 36,000  Level Atlanta Center
Wed 02:02:04 PM 36.0547 -81.5936 228° Southwest 435 501 36,000  Level Atlanta Center
Wed 02:03:04 PM 35.9631 -81.7092 226° Southwest 435 501 36,000  Level Atlanta Center
Wed 02:04:04 PM 35.8817 -81.8142 226° Southwest 435 501 36,000  Level Atlanta Center
Wed 02:05:04 PM 35.7958 -81.9214 225° Southwest 435 501 36,000  Level Atlanta Center
Wed 02:06:04 PM 35.7142 -82.0258 226° Southwest 428 493 36,000 -100 Level Atlanta Center
Wed 02:07:04 PM 35.6325 -82.1328 227° Southwest 428 493 35,800 -400 Descending Atlanta Center
Wed 02:08:04 PM 35.5486 -82.2392 226° Southwest 434 499 35,200 -650 Descending Atlanta Center
Wed 02:09:04 PM 35.4625 -82.3456 225° Southwest 434 499 34,500 -600 Descending Atlanta Center
Wed 02:10:04 PM 35.3844 -82.4467 227° Southwest 419 482 34,000 -300 Descending Atlanta Center
Wed 02:11:04 PM 35.3086 -82.5397 225° Southwest 398 458 33,900 -500 Descending Atlanta Center
Wed 02:12:04 PM 35.2344 -82.6350 226° Southwest 398 458 33,000 -950 Descending Atlanta Center
Wed 02:13:04 PM 35.1606 -82.7278 226° Southwest 386 444 32,000 -1,000 Descending Atlanta Center
Wed 02:14:04 PM 35.0861 -82.8153 224° Southwest 380 437 31,000 -700 Descending Atlanta Center
Wed 02:15:04 PM 35.0142 -82.9053 226° Southwest 375 432 30,600 -450 Descending Atlanta Center
Wed 02:16:04 PM 34.9419 -82.9972 226° Southwest 380 437 30,100 -600 Descending Atlanta Center
Wed 02:17:04 PM 34.8736 -83.0742 223° Southwest 380 437 29,400 -700 Descending Atlanta Center
Wed 02:18:04 PM 34.8056 -83.1636 227° Southwest 375 432 28,700 -700 Descending Atlanta Center
Wed 02:19:04 PM 34.7331 -83.2503 225° Southwest 382 440 28,000 -350 Descending Atlanta Center
Wed 02:20:04 PM 34.6689 -83.3442 230° Southwest 370 426 28,000  Level Atlanta Center
Wed 02:21:04 PM 34.7092 -83.4450 296° West 304 350 28,000  Level Atlanta Center
Wed 02:22:04 PM 34.7908 -83.5103 327° Northwest 290 334 28,000 -550 Level Atlanta Center
Wed 02:23:04 PM 34.7933 -83.6442 271° West 310 357 26,900 -2,250 Descending Atlanta Center
Wed 02:24:04 PM 34.7436 -83.7606 243° Southwest 378 435 23,500 -2,950 Descending Atlanta Center
Wed 02:25:04 PM 34.6247 -83.7661 182° South 354 407 21,000 -1,900 Descending Atlanta Center
Wed 02:26:04 PM 34.5244 -83.7917 192° South 373 429 19,700 -1,500 Descending Atlanta Center
Wed 02:27:04 PM 34.4389 -83.8297 200° South 348 400 18,000 -1,600 Descending Atlanta Center
Wed 02:28:04 PM 34.3578 -83.8753 205° Southwest 332 382 16,500 -1,450 Descending Atlanta Center
Wed 02:29:04 PM 34.2867 -83.9131 204° Southwest 319 367 15,100 -1,550 Descending Atlanta Center
Wed 02:30:04 PM 34.2094 -83.9558 205° Southwest 311 358 13,400 -1,050 Descending Atlanta Center
Wed 02:31:04 PM 34.1386 -84.0061 210° Southwest 304 350 13,000 -226 Descending Atlanta Center
Wed 02:31:50 PM 34.0833 -84.0500 213° Southwest 305 351 13,000  Level Atlanta TRACON
Wed 02:32:56 PM 34.0000 -84.1167 214° Southwest 304 350 13,000  Level Atlanta TRACON
Wed 02:33:50 PM 33.9333 -84.1667 212° Southwest 307 353 13,000  Level Atlanta TRACON
Wed 02:34:56 PM 33.8667 -84.2333 220° Southwest 289 333 13,000  Level Atlanta TRACON
Wed 02:35:56 PM 33.8000 -84.2833 212° Southwest 258 297 13,000 -400 Level Atlanta TRACON
Wed 02:36:56 PM 33.7500 -84.3333 220° Southwest 253 291 12,200 -1,050 Descending Atlanta TRACON
Wed 02:37:56 PM 33.7333 -84.4333 259° West 266 306 10,900 -1,450 Descending Atlanta TRACON
Wed 02:38:56 PM 33.7333 -84.5000 270° West 248 285 9,300 -1,800 Descending Atlanta TRACON
Wed 02:39:56 PM 33.7333 -84.5833 270° West 243 280 7,300 -1,857 Descending Atlanta TRACON
Wed 02:41:02 PM 33.7333 -84.6833 270° West 246 283 5,400 -1,150 Descending Atlanta TRACON
Wed 02:41:56 PM 33.7333 -84.7500 270° West 241 277 5,000 -211 Descending Atlanta TRACON
Wed 02:42:56 PM 33.7333 -84.8167 270° West 201 231 5,000  Level Atlanta TRACON
Wed 02:43:56 PM 33.7333 -84.8833 270° West 204 235 5,000  Level Atlanta TRACON
Wed 02:44:56 PM 33.6833 -84.9000 196° South 174 200 5,000  Level Atlanta TRACON
Wed 02:45:56 PM 33.6500 -84.8667 140° Southeast 165 190 5,000  Level Atlanta TRACON
Wed 02:46:50 PM 33.6500 -84.8333 90° East 165 190 5,000  Level Atlanta TRACON
Wed 02:47:56 PM 33.6500 -84.7667 90° East 161 185 5,000  Level Atlanta TRACON
Wed 02:48:56 PM 33.6500 -84.7167 90° East 165 190 5,000  Level Atlanta TRACON
Wed 02:49:50 PM 33.6500 -84.6667 90° East 162 186 5,000 -684 Level Atlanta TRACON
Wed 02:50:50 PM 33.6500 -84.6000 90° East 169 194 3,700 -1,050 Descending Atlanta TRACON
Wed 02:51:50 PM 33.6500 -84.5500 90° East 163 188 2,900 -750 Descending Atlanta TRACON
Wed 02:52:50 PM 33.6500 -84.5167 90° East 121 139 2,200 -700 Descending Atlanta TRACON
Wed 02:53:50 PM 33.6500 -84.4667 90° East 137 158 1,500 -700 Descending Atlanta TRACON
Wed 02:55:00 PM 33.6367 -84.4279 103° East  Level Estimated
Wed 03:02:00 PM 33.6367 -84.4279 103° East  Level Estimated

Login

Don't have an account? Register now (free) for customized features, flight alerts, and more!